Time;durP1;ratioP1;P1;durP2;ratioP2;P2;SDS_P1;SDS_P2;PMS_P1;PMS_P2;Temp;Humidity;BMP_temperature;BMP_pressure;BME280_temperature;BME280_humidity;BME280_pressure;Samples;Min_cycle;Max_cycle;Signal;HPM_P1;HPM_P2
2021/05/21 00:01:04;;;;;;;3.13;1.90;;;;;;;;;;5026617;28;20663;-62
2021/05/21 00:03:31;;;;;;;3.73;2.27;;;;;;;;;;5040426;28;20285;-60
2021/05/21 00:05:59;;;;;;;4.57;2.70;;;;;;;;;;5044177;28;20252;-61
2021/05/21 00:08:24;;;;;;;3.50;2.80;;;;;;;;;;5045808;28;20243;-61
2021/05/21 00:10:52;;;;;;;3.50;3.20;;;;;;;;;;5045387;28;20761;-62
2021/05/21 00:13:17;;;;;;;4.67;2.73;;;;;;;;;;5045379;28;20300;-60
2021/05/21 00:15:47;;;;;;;3.30;2.87;;;;;;;;;;5044594;28;20265;-62
2021/05/21 00:18:12;;;;;;;2.33;2.00;;;;;;;;;;5024153;28;20191;-60
2021/05/21 00:20:40;;;;;;;2.03;1.80;;;;;;;;;;5035526;28;20182;-60
2021/05/21 00:23:05;;;;;;;2.10;1.93;;;;;;;;;;5046918;28;20670;-60
2021/05/21 00:25:30;;;;;;;2.57;2.00;;;;;;;;;;5045637;28;20197;-60
2021/05/21 00:28:00;;;;;;;3.30;2.37;;;;;;;;;;5047061;28;20255;-60
2021/05/21 00:30:26;;;;;;;2.77;1.93;;;;;;;;;;5022763;28;20635;-59
2021/05/21 00:32:56;;;;;;;2.93;2.43;;;;;;;;;;5028433;28;20190;-61
2021/05/21 00:35:21;;;;;;;3.13;2.67;;;;;;;;;;5044073;28;20602;-60
2021/05/21 00:37:46;;;;;;;2.60;2.40;;;;;;;;;;5045189;28;20202;-60
2021/05/21 00:40:15;;;;;;;3.03;2.37;;;;;;;;;;5045106;28;20174;-60
2021/05/21 00:42:42;;;;;;;3.00;1.80;;;;;;;;;;5045305;28;20690;-62
2021/05/21 00:45:08;;;;;;;2.57;1.70;;;;;;;;;;5043364;28;20233;-61
2021/05/21 00:47:36;;;;;;;2.27;2.03;;;;;;;;;;5046822;28;20195;-61
2021/05/21 00:50:05;;;;;;;1.90;1.23;;;;;;;;;;5045903;28;20317;-61
2021/05/21 00:52:32;;;;;;;1.67;1.40;;;;;;;;;;5043354;28;20192;-60
2021/05/21 00:54:57;;;;;;;3.20;2.90;;;;;;;;;;5048362;28;20209;-61
2021/05/21 00:57:23;;;;;;;2.40;2.10;;;;;;;;;;5047032;28;20265;-61
2021/05/21 00:59:50;;;;;;;2.60;2.40;;;;;;;;;;5042855;28;20190;-61
2021/05/21 01:02:18;;;;;;;2.30;2.10;;;;;;;;;;5026736;28;20202;-59
2021/05/21 01:04:43;;;;;;;4.97;2.97;;;;;;;;;;5045405;28;20214;-61
2021/05/21 01:07:09;;;;;;;2.57;1.70;;;;;;;;;;5045763;28;20198;-61
2021/05/21 01:09:34;;;;;;;3.10;2.57;;;;;;;;;;5043780;28;20256;-61
2021/05/21 01:12:02;;;;;;;2.77;2.23;;;;;;;;;;5045145;28;20593;-60
2021/05/21 01:14:28;;;;;;;2.97;2.43;;;;;;;;;;5028588;28;20237;-62
2021/05/21 01:16:58;;;;;;;2.90;2.37;;;;;;;;;;5038302;28;20736;-60
2021/05/21 01:19:23;;;;;;;3.13;2.60;;;;;;;;;;5041377;28;20247;-60
2021/05/21 01:21:51;;;;;;;3.47;2.10;;;;;;;;;;5027282;28;20197;-60
2021/05/21 01:24:20;;;;;;;2.90;2.70;;;;;;;;;;5046869;28;20217;-60
2021/05/21 01:26:48;;;;;;;1.57;1.47;;;;;;;;;;5043068;28;20220;-59
2021/05/21 01:29:13;;;;;;;2.60;1.90;;;;;;;;;;5027573;28;20244;-62
2021/05/21 01:31:44;;;;;;;3.33;2.70;;;;;;;;;;5048800;28;20219;-60
2021/05/21 01:34:10;;;;;;;2.03;1.90;;;;;;;;;;5048356;28;20207;-60
2021/05/21 01:36:37;;;;;;;1.70;1.60;;;;;;;;;;5047847;28;20292;-63
2021/05/21 01:39:12;;;;;;;1.70;1.60;;;;;;;;;;5048600;28;20191;-59
2021/05/21 01:41:40;;;;;;;2.00;1.70;;;;;;;;;;5034154;28;20187;-60
2021/05/21 01:44:09;;;;;;;2.07;1.77;;;;;;;;;;5031604;28;20208;-61
2021/05/21 01:46:36;;;;;;;1.40;1.30;;;;;;;;;;5039888;28;20194;-61
2021/05/21 01:49:08;;;;;;;2.17;1.93;;;;;;;;;;5046345;28;20675;-60
2021/05/21 01:51:49;;;;;;;1.03;0.93;;;;;;;;;;5048521;28;20239;-60
2021/05/21 01:54:15;;;;;;;1.73;1.40;;;;;;;;;;5051419;28;20201;-60
2021/05/21 01:56:41;;;;;;;1.43;1.13;;;;;;;;;;5049086;28;20190;-58
2021/05/21 01:59:06;;;;;;;1.70;1.43;;;;;;;;;;5046261;28;20191;-58
2021/05/21 02:01:37;;;;;;;0.83;0.83;;;;;;;;;;5048357;28;20212;-60
2021/05/21 02:04:05;;;;;;;1.10;1.03;;;;;;;;;;5033021;28;20276;-62
2021/05/21 02:06:38;;;;;;;1.63;1.53;;;;;;;;;;5024486;28;20218;-61
2021/05/21 02:09:08;;;;;;;1.67;1.57;;;;;;;;;;5046458;28;20221;-59
2021/05/21 02:11:36;;;;;;;1.10;1.00;;;;;;;;;;5045489;28;20273;-60
2021/05/21 02:14:02;;;;;;;1.20;1.10;;;;;;;;;;5047092;28;20627;-59
2021/05/21 02:16:30;;;;;;;0.83;0.83;;;;;;;;;;5045861;28;20288;-60
2021/05/21 02:18:55;;;;;;;1.00;1.00;;;;;;;;;;5046043;28;20194;-58
2021/05/21 02:21:31;;;;;;;0.90;0.90;;;;;;;;;;5048392;28;20189;-61
2021/05/21 02:23:56;;;;;;;5.57;1.30;;;;;;;;;;5044165;28;20240;-61
2021/05/21 02:26:23;;;;;;;1.70;1.60;;;;;;;;;;5040256;28;20199;-59
2021/05/21 02:28:51;;;;;;;1.80;1.50;;;;;;;;;;5039856;28;20301;-61
2021/05/21 02:31:16;;;;;;;1.33;1.17;;;;;;;;;;5045711;28;20573;-60
2021/05/21 02:33:41;;;;;;;1.50;0.83;;;;;;;;;;5045913;28;20214;-60
2021/05/21 02:36:09;;;;;;;3.07;1.00;;;;;;;;;;5047633;28;20201;-60
2021/05/21 02:38:36;;;;;;;0.90;0.83;;;;;;;;;;5048627;28;20182;-60
2021/05/21 02:41:02;;;;;;;1.47;0.97;;;;;;;;;;5025881;28;20201;-61
2021/05/21 02:43:28;;;;;;;2.33;1.00;;;;;;;;;;5040406;28;20201;-59
2021/05/21 02:45:55;;;;;;;2.90;1.33;;;;;;;;;;5047855;28;20197;-61
2021/05/21 02:48:23;;;;;;;3.63;0.80;;;;;;;;;;5031950;28;20186;-61
2021/05/21 02:50:50;;;;;;;1.43;1.23;;;;;;;;;;5041539;28;20315;-62
2021/05/21 02:53:18;;;;;;;0.70;0.70;;;;;;;;;;5045448;28;20721;-60
2021/05/21 02:55:45;;;;;;;2.30;1.00;;;;;;;;;;5048972;28;20211;-60
2021/05/21 02:58:18;;;;;;;1.27;1.17;;;;;;;;;;5047819;28;20188;-60
2021/05/21 03:00:45;;;;;;;1.33;0.90;;;;;;;;;;5044101;28;20197;-60
2021/05/21 03:03:11;;;;;;;1.20;0.90;;;;;;;;;;5046062;28;20218;-63
2021/05/21 03:05:39;;;;;;;1.27;1.03;;;;;;;;;;5047449;28;20235;-59
2021/05/21 03:08:04;;;;;;;1.17;0.70;;;;;;;;;;5049407;28;20182;-61
2021/05/21 03:10:32;;;;;;;1.00;0.90;;;;;;;;;;5045926;28;20565;-61
2021/05/21 03:13:00;;;;;;;3.10;1.30;;;;;;;;;;5045543;28;20210;-60
2021/05/21 03:15:29;;;;;;;0.60;0.60;;;;;;;;;;5048982;28;20248;-61
2021/05/21 03:17:59;;;;;;;1.27;1.17;;;;;;;;;;5031166;28;20189;-61
2021/05/21 03:20:27;;;;;;;1.30;1.20;;;;;;;;;;5040911;28;20238;-62
2021/05/21 03:22:54;;;;;;;4.13;1.23;;;;;;;;;;5045919;28;20186;-61
2021/05/21 03:25:21;;;;;;;1.40;1.30;;;;;;;;;;5050117;28;20200;-61
2021/05/21 03:27:51;;;;;;;1.00;1.00;;;;;;;;;;5045895;28;20198;-58
2021/05/21 03:30:19;;;;;;;1.30;1.20;;;;;;;;;;5045303;28;20220;-61
2021/05/21 03:32:47;;;;;;;1.43;1.30;;;;;;;;;;5045078;28;20241;-62
2021/05/21 03:35:14;;;;;;;2.60;1.00;;;;;;;;;;5048231;28;20193;-60
2021/05/21 03:37:42;;;;;;;3.37;1.70;;;;;;;;;;5039878;28;20209;-61
2021/05/21 03:40:12;;;;;;;0.80;0.80;;;;;;;;;;5043682;28;20193;-60
2021/05/21 03:42:42;;;;;;;1.30;1.20;;;;;;;;;;5042213;28;20239;-62
2021/05/21 03:45:08;;;;;;;1.80;0.90;;;;;;;;;;5047156;28;20277;-60
2021/05/21 03:47:36;;;;;;;0.93;0.60;;;;;;;;;;5045322;28;20277;-61
2021/05/21 03:50:04;;;;;;;0.77;0.77;;;;;;;;;;5026645;28;20644;-62
2021/05/21 03:52:29;;;;;;;1.03;1.03;;;;;;;;;;5031427;28;20674;-59
2021/05/21 03:54:54;;;;;;;0.80;0.80;;;;;;;;;;5046618;28;20221;-61
2021/05/21 03:57:21;;;;;;;0.90;0.90;;;;;;;;;;5028233;28;20576;-60
2021/05/21 03:59:47;;;;;;;1.03;0.90;;;;;;;;;;5044550;28;20197;-61
2021/05/21 04:02:13;;;;;;;0.90;0.90;;;;;;;;;;5045370;28;20189;-60
2021/05/21 04:04:40;;;;;;;2.33;1.63;;;;;;;;;;5045317;28;20217;-60
2021/05/21 04:07:10;;;;;;;1.30;1.10;;;;;;;;;;5041135;28;20233;-61
2021/05/21 04:09:38;;;;;;;1.20;1.10;;;;;;;;;;5044251;28;20227;-61
2021/05/21 04:12:06;;;;;;;1.10;1.00;;;;;;;;;;5046965;28;20669;-63
2021/05/21 04:14:36;;;;;;;1.00;1.00;;;;;;;;;;5041884;28;20210;-61
2021/05/21 04:17:06;;;;;;;0.70;0.70;;;;;;;;;;5042555;28;20216;-60
2021/05/21 04:19:33;;;;;;;1.10;1.00;;;;;;;;;;5045660;28;20200;-63
2021/05/21 04:21:58;;;;;;;1.60;0.80;;;;;;;;;;5046003;28;20186;-60
2021/05/21 04:24:24;;;;;;;1.63;0.87;;;;;;;;;;5043547;28;20218;-60
2021/05/21 04:26:49;;;;;;;0.70;0.70;;;;;;;;;;5027249;28;20232;-61
2021/05/21 04:29:16;;;;;;;1.20;1.10;;;;;;;;;;5046991;28;20199;-60
2021/05/21 04:31:41;;;;;;;1.23;1.00;;;;;;;;;;5045564;28;20201;-60
2021/05/21 04:34:07;;;;;;;1.93;1.20;;;;;;;;;;5044266;28;20230;-60
2021/05/21 04:36:33;;;;;;;1.70;1.23;;;;;;;;;;5041073;28;20195;-59
2021/05/21 04:38:58;;;;;;;1.57;0.77;;;;;;;;;;5042561;28;20206;-60
2021/05/21 04:41:28;;;;;;;0.80;0.80;;;;;;;;;;5029819;28;20197;-60
2021/05/21 04:43:55;;;;;;;2.87;1.10;;;;;;;;;;5044766;28;20255;-60
2021/05/21 04:46:23;;;;;;;0.90;0.90;;;;;;;;;;5046387;28;20200;-61
2021/05/21 04:48:51;;;;;;;1.13;1.03;;;;;;;;;;5044800;28;20216;-59
2021/05/21 04:51:16;;;;;;;1.43;1.33;;;;;;;;;;5044352;28;20273;-59
2021/05/21 04:53:41;;;;;;;1.20;1.10;;;;;;;;;;5046440;28;20293;-60
2021/05/21 04:56:10;;;;;;;2.73;1.70;;;;;;;;;;5029904;28;20178;-59
2021/05/21 04:58:36;;;;;;;1.13;0.90;;;;;;;;;;5042664;28;20285;-61
2021/05/21 05:01:03;;;;;;;1.40;1.30;;;;;;;;;;5043982;28;20273;-60
2021/05/21 05:03:31;;;;;;;1.77;1.20;;;;;;;;;;5028120;28;20234;-61
2021/05/21 05:05:57;;;;;;;3.17;1.40;;;;;;;;;;5045947;28;20672;-60
2021/05/21 05:08:24;;;;;;;2.30;1.30;;;;;;;;;;5034279;28;20194;-60
2021/05/21 05:10:52;;;;;;;2.40;1.30;;;;;;;;;;5026324;28;20186;-61
2021/05/21 05:13:17;;;;;;;2.73;1.20;;;;;;;;;;5043431;28;20220;-61
2021/05/21 05:15:45;;;;;;;1.83;1.20;;;;;;;;;;5045946;28;20270;-60
2021/05/21 05:18:11;;;;;;;1.10;1.00;;;;;;;;;;5045346;28;20202;-60
2021/05/21 05:20:40;;;;;;;1.87;1.00;;;;;;;;;;5028267;28;20182;-60
2021/05/21 05:23:11;;;;;;;2.23;1.10;;;;;;;;;;5048402;28;20583;-59
2021/05/21 05:25:47;;;;;;;1.17;1.00;;;;;;;;;;5043562;28;20193;-61
2021/05/21 05:28:15;;;;;;;0.80;0.80;;;;;;;;;;5028226;28;20680;-60
2021/05/21 05:30:42;;;;;;;2.83;1.13;;;;;;;;;;5044755;28;20811;-60
2021/05/21 05:33:08;;;;;;;0.90;0.90;;;;;;;;;;5044216;28;20210;-60
2021/05/21 05:35:38;;;;;;;1.20;0.90;;;;;;;;;;5026957;28;20190;-61
2021/05/21 05:38:08;;;;;;;1.37;1.20;;;;;;;;;;5044239;28;20217;-60
2021/05/21 05:40:38;;;;;;;1.47;1.37;;;;;;;;;;5044138;28;20186;-62
2021/05/21 05:43:08;;;;;;;1.73;1.20;;;;;;;;;;5038159;28;20205;-61
2021/05/21 05:45:33;;;;;;;1.03;0.90;;;;;;;;;;5042062;28;20197;-60
2021/05/21 05:48:00;;;;;;;1.97;1.03;;;;;;;;;;5041913;28;20190;-60
2021/05/21 05:50:26;;;;;;;1.80;1.57;;;;;;;;;;5042837;28;20838;-60
2021/05/21 05:52:56;;;;;;;0.77;0.77;;;;;;;;;;5042446;28;20217;-59
2021/05/21 05:55:23;;;;;;;4.70;1.03;;;;;;;;;;5042779;28;20221;-61
2021/05/21 05:57:51;;;;;;;2.07;1.00;;;;;;;;;;5040938;28;20215;-60
2021/05/21 06:00:19;;;;;;;1.03;0.87;;;;;;;;;;5036876;28;20320;-61
2021/05/21 06:02:44;;;;;;;2.63;0.83;;;;;;;;;;5045759;28;20194;-60
2021/05/21 06:05:11;;;;;;;4.00;1.20;;;;;;;;;;5044767;28;20185;-62
2021/05/21 06:07:41;;;;;;;1.00;0.90;;;;;;;;;;5038046;28;20220;-60
2021/05/21 06:10:07;;;;;;;2.33;1.10;;;;;;;;;;5039552;28;20343;-62
2021/05/21 06:12:32;;;;;;;1.37;1.00;;;;;;;;;;5046651;28;20277;-62
2021/05/21 06:15:00;;;;;;;1.13;0.90;;;;;;;;;;5042770;28;20219;-62
2021/05/21 06:17:30;;;;;;;1.33;0.90;;;;;;;;;;5043940;28;20197;-63
2021/05/21 06:19:57;;;;;;;3.37;0.60;;;;;;;;;;5042958;28;20186;-61
2021/05/21 06:22:27;;;;;;;1.27;0.80;;;;;;;;;;5047051;28;20286;-61
2021/05/21 06:25:05;;;;;;;0.83;0.70;;;;;;;;;;5047510;28;20224;-60
2021/05/21 06:27:35;;;;;;;1.73;1.27;;;;;;;;;;5030831;28;20198;-60
2021/05/21 06:30:02;;;;;;;1.97;0.80;;;;;;;;;;5031672;28;20237;-59
2021/05/21 06:32:32;;;;;;;2.73;0.80;;;;;;;;;;5040885;28;20190;-61
2021/05/21 06:34:58;;;;;;;0.80;0.80;;;;;;;;;;5029436;28;20656;-60
2021/05/21 06:37:26;;;;;;;0.77;0.77;;;;;;;;;;5043451;28;20719;-61
2021/05/21 06:39:54;;;;;;;1.83;0.83;;;;;;;;;;5045103;28;20194;-61
2021/05/21 06:42:21;;;;;;;4.67;0.90;;;;;;;;;;5039721;28;20577;-62
2021/05/21 06:44:48;;;;;;;3.80;0.90;;;;;;;;;;5041387;28;20214;-63
2021/05/21 06:47:14;;;;;;;0.93;0.87;;;;;;;;;;5035871;28;20645;-60
2021/05/21 06:49:39;;;;;;;5.47;0.93;;;;;;;;;;5038999;28;20214;-59
2021/05/21 06:52:05;;;;;;;2.43;1.13;;;;;;;;;;5040721;28;20564;-60
2021/05/21 06:54:36;;;;;;;1.70;0.93;;;;;;;;;;5043963;28;20209;-61
2021/05/21 06:57:03;;;;;;;2.50;0.80;;;;;;;;;;5039222;28;20193;-62
2021/05/21 06:59:28;;;;;;;1.43;0.80;;;;;;;;;;5039974;28;20182;-59
2021/05/21 07:01:56;;;;;;;1.90;0.80;;;;;;;;;;5029835;28;20193;-59
2021/05/21 07:04:24;;;;;;;5.97;1.20;;;;;;;;;;5024168;28;20308;-61
2021/05/21 07:06:49;;;;;;;1.10;0.80;;;;;;;;;;5046644;28;20202;-59
2021/05/21 07:09:17;;;;;;;1.87;0.90;;;;;;;;;;5042396;28;20221;-65
2021/05/21 07:11:42;;;;;;;1.67;1.10;;;;;;;;;;5028583;28;20252;-62
2021/05/21 07:14:12;;;;;;;3.13;0.90;;;;;;;;;;5047653;28;20213;-62
2021/05/21 07:16:37;;;;;;;1.25;0.90;;;;;;;;;;5048433;28;20197;-60
2021/05/21 07:19:07;;;;;;;2.20;0.90;;;;;;;;;;5044885;28;20187;-62
2021/05/21 07:21:33;;;;;;;4.72;0.85;;;;;;;;;;5045590;28;20399;-62
2021/05/21 07:24:00;;;;;;;1.40;0.98;;;;;;;;;;5046012;28;20797;-60
2021/05/21 07:26:31;;;;;;;1.75;1.00;;;;;;;;;;5033242;28;20259;-63
2021/05/21 07:28:58;;;;;;;0.77;0.68;;;;;;;;;;5046169;28;20208;-62
2021/05/21 07:31:27;;;;;;;2.45;0.98;;;;;;;;;;5042484;28;20198;-60
2021/05/21 07:33:53;;;;;;;1.55;0.85;;;;;;;;;;5041965;28;20809;-61
2021/05/21 07:36:19;;;;;;;1.30;0.90;;;;;;;;;;5044339;28;20864;-61
2021/05/21 07:38:46;;;;;;;3.50;1.23;;;;;;;;;;5039738;28;20185;-62
2021/05/21 07:41:12;;;;;;;2.53;1.10;;;;;;;;;;5046657;28;20183;-65
2021/05/21 07:43:40;;;;;;;4.45;1.20;;;;;;;;;;5044879;28;20255;-62
2021/05/21 07:46:05;;;;;;;2.08;1.10;;;;;;;;;;5045602;28;20929;-61
2021/05/21 07:48:34;;;;;;;4.07;1.15;;;;;;;;;;5042961;28;20281;-64
2021/05/21 07:51:02;;;;;;;4.50;1.20;;;;;;;;;;5041479;28;20193;-60
2021/05/21 07:53:30;;;;;;;5.10;0.90;;;;;;;;;;5046496;28;20295;-63
2021/05/21 07:55:58;;;;;;;1.95;1.10;;;;;;;;;;5043860;28;20186;-61
2021/05/21 07:58:25;;;;;;;1.67;1.00;;;;;;;;;;5039805;28;20320;-61
2021/05/21 08:00:52;;;;;;;2.65;1.20;;;;;;;;;;5046364;28;20180;-61
2021/05/21 08:03:19;;;;;;;3.65;1.10;;;;;;;;;;5044214;28;20236;-62
2021/05/21 08:05:47;;;;;;;1.85;1.00;;;;;;;;;;5037813;28;20208;-67
2021/05/21 08:08:21;;;;;;;1.75;0.90;;;;;;;;;;5039003;28;20267;-61
2021/05/21 08:10:50;;;;;;;2.08;1.33;;;;;;;;;;5031042;28;20210;-62
2021/05/21 08:13:18;;;;;;;3.20;0.93;;;;;;;;;;5042804;28;20217;-61
2021/05/21 08:15:44;;;;;;;2.08;1.20;;;;;;;;;;5043830;28;20256;-64
2021/05/21 08:18:10;;;;;;;1.77;1.02;;;;;;;;;;5047117;28;20206;-61
2021/05/21 08:20:38;;;;;;;8.35;1.27;;;;;;;;;;5047641;28;20190;-60
2021/05/21 08:23:04;;;;;;;2.83;1.00;;;;;;;;;;5042687;28;20213;-63
2021/05/21 08:25:32;;;;;;;3.63;0.90;;;;;;;;;;5023378;28;20276;-60
2021/05/21 08:27:59;;;;;;;8.27;1.10;;;;;;;;;;5037852;28;20201;-64
2021/05/21 08:30:25;;;;;;;2.15;1.00;;;;;;;;;;5042796;28;20213;-60
2021/05/21 08:32:51;;;;;;;3.05;1.20;;;;;;;;;;5039606;28;20198;-64
2021/05/21 08:35:20;;;;;;;2.72;1.30;;;;;;;;;;5045110;28;20204;-60
2021/05/21 08:37:48;;;;;;;3.72;1.30;;;;;;;;;;5040190;28;20675;-62
2021/05/21 08:40:22;;;;;;;2.40;1.27;;;;;;;;;;5045871;28;20248;-66
2021/05/21 08:42:56;;;;;;;3.33;1.40;;;;;;;;;;5047074;28;20204;-64
2021/05/21 08:45:23;;;;;;;3.38;1.85;;;;;;;;;;5031670;28;20587;-63
2021/05/21 08:47:51;;;;;;;4.00;1.30;;;;;;;;;;5029033;28;20182;-66
2021/05/21 08:50:17;;;;;;;2.42;1.40;;;;;;;;;;5033730;28;20302;-60
2021/05/21 08:52:47;;;;;;;5.10;1.40;;;;;;;;;;5043614;28;20277;-66
2021/05/21 08:55:13;;;;;;;2.30;1.33;;;;;;;;;;5042946;28;20197;-60
2021/05/21 08:57:38;;;;;;;5.47;1.52;;;;;;;;;;5043389;28;20186;-63
2021/05/21 09:00:07;;;;;;;4.25;1.02;;;;;;;;;;5023455;28;20238;-62
2021/05/21 09:02:37;;;;;;;2.53;1.27;;;;;;;;;;5040356;28;20679;-60
2021/05/21 09:05:04;;;;;;;3.72;1.40;;;;;;;;;;5044203;28;20214;-60
2021/05/21 09:07:40;;;;;;;1.83;1.20;;;;;;;;;;5044054;28;20190;-58
2021/05/21 09:10:17;;;;;;;2.17;0.88;;;;;;;;;;5024696;28;20201;-60
2021/05/21 09:12:51;;;;;;;5.78;1.55;;;;;;;;;;5041302;28;20182;-60
2021/05/21 09:15:19;;;;;;;6.15;1.45;;;;;;;;;;5045838;28;20247;-60
2021/05/21 09:17:58;;;;;;;1.65;1.02;;;;;;;;;;5047926;28;20190;-59
2021/05/21 09:20:37;;;;;;;1.63;0.85;;;;;;;;;;5044695;28;20193;-60
2021/05/21 09:23:11;;;;;;;1.20;0.95;;;;;;;;;;5043747;28;20288;-60
2021/05/21 09:25:51;;;;;;;2.40;0.90;;;;;;;;;;5045204;28;20182;-57
2021/05/21 09:28:36;;;;;;;2.92;1.20;;;;;;;;;;5045231;28;20292;-56
2021/05/21 09:31:20;;;;;;;7.18;1.20;;;;;;;;;;5046107;28;20244;-57
2021/05/21 09:33:50;;;;;;;8.85;1.63;;;;;;;;;;5039317;28;20201;-56
2021/05/21 09:36:39;;;;;;;1.00;0.80;;;;;;;;;;5040179;28;20851;-57
2021/05/21 09:39:10;;;;;;;5.57;1.00;;;;;;;;;;5024147;28;20178;-58
2021/05/21 09:41:49;;;;;;;1.38;0.77;;;;;;;;;;5047400;28;20206;-60
2021/05/21 09:44:20;;;;;;;4.10;1.40;;;;;;;;;;5045764;28;20213;-59
2021/05/21 09:46:49;;;;;;;1.50;0.90;;;;;;;;;;5048500;28;20197;-59
2021/05/21 09:49:36;;;;;;;2.85;1.42;;;;;;;;;;5049729;28;20206;-59
2021/05/21 09:52:09;;;;;;;3.72;1.33;;;;;;;;;;5037688;28;20181;-59
2021/05/21 09:54:52;;;;;;;5.07;1.00;;;;;;;;;;5048350;28;20247;-60
2021/05/21 09:57:32;;;;;;;1.77;0.80;;;;;;;;;;5038465;28;20202;-58
2021/05/21 10:00:05;;;;;;;2.30;1.10;;;;;;;;;;5029279;28;20593;-58
2021/05/21 10:02:33;;;;;;;1.73;1.00;;;;;;;;;;5048546;28;20186;-59
2021/05/21 10:05:03;;;;;;;2.53;0.90;;;;;;;;;;5047319;28;20590;-59
2021/05/21 10:07:29;;;;;;;0.98;0.82;;;;;;;;;;5042308;28;20197;-60
2021/05/21 10:09:56;;;;;;;5.15;0.80;;;;;;;;;;5028182;28;20202;-60
2021/05/21 10:12:24;;;;;;;1.65;1.00;;;;;;;;;;5065311;23;20788;-60
2021/05/21 10:14:52;;;;;;;3.20;0.90;;;;;;;;;;5067920;28;20246;-60
2021/05/21 10:17:25;;;;;;;3.15;0.90;;;;;;;;;;5071248;28;20202;-60
2021/05/21 10:19:58;;;;;;;6.68;1.10;;;;;;;;;;5070208;28;20591;-60
2021/05/21 10:22:38;;;;;;;0.75;0.75;;;;;;;;;;5022974;28;20212;-58
2021/05/21 10:25:06;;;;;;;3.28;1.10;;;;;;;;;;5063589;28;20191;-60
2021/05/21 10:27:32;;;;;;;22.80;2.20;;;;;;;;;;5048864;28;20193;-59
2021/05/21 10:30:05;;;;;;;3.80;1.15;;;;;;;;;;5061598;28;20206;-58
2021/05/21 10:32:31;;;;;;;0.77;0.68;;;;;;;;;;5049642;28;20219;-59
2021/05/21 10:35:12;;;;;;;1.58;0.80;;;;;;;;;;5068062;28;20173;-58
2021/05/21 10:37:40;;;;;;;4.65;1.08;;;;;;;;;;5041841;28;20612;-57
2021/05/21 10:40:13;;;;;;;2.78;1.10;;;;;;;;;;5069580;28;21494;-59
2021/05/21 10:42:44;;;;;;;0.98;0.70;;;;;;;;;;5069369;28;20202;-59
2021/05/21 10:45:11;;;;;;;2.28;1.23;;;;;;;;;;5052005;28;20248;-59
2021/05/21 10:47:38;;;;;;;2.40;0.95;;;;;;;;;;5067556;28;20189;-58
2021/05/21 10:50:21;;;;;;;1.83;0.90;;;;;;;;;;5049454;28;20203;-60
2021/05/21 10:52:52;;;;;;;1.30;1.00;;;;;;;;;;5049552;28;20228;-57
2021/05/21 10:55:38;;;;;;;3.10;1.25;;;;;;;;;;5065253;28;20569;-56
2021/05/21 10:58:04;;;;;;;0.88;0.85;;;;;;;;;;5047283;28;20215;-56
2021/05/21 11:00:34;;;;;;;1.58;0.80;;;;;;;;;;5066459;28;20182;-58
2021/05/21 11:03:01;;;;;;;11.68;1.35;;;;;;;;;;5069182;28;20221;-59
2021/05/21 11:05:38;;;;;;;1.95;1.02;;;;;;;;;;5056154;28;20240;-59
2021/05/21 11:08:11;;;;;;;8.85;1.52;;;;;;;;;;5064188;28;20211;-59
2021/05/21 11:10:36;;;;;;;10.45;1.02;;;;;;;;;;5061378;28;20225;-59
2021/05/21 11:13:15;;;;;;;6.55;1.00;;;;;;;;;;5049893;28;20221;-58
2021/05/21 11:15:47;;;;;;;2.28;0.80;;;;;;;;;;5068943;28;20196;-58
2021/05/21 11:21:04;;;;;;;1.80;0.90;;;;;;;;;;5063148;28;20307;-56
2021/05/21 11:23:53;;;;;;;1.57;0.77;;;;;;;;;;5063094;28;20292;-56
2021/05/21 11:26:19;;;;;;;3.87;0.90;;;;;;;;;;5059824;28;20737;-56
2021/05/21 11:28:49;;;;;;;6.77;1.57;;;;;;;;;;5065095;28;20252;-55
2021/05/21 11:31:18;;;;;;;1.17;0.70;;;;;;;;;;5068784;28;20181;-57
2021/05/21 11:33:50;;;;;;;1.10;0.80;;;;;;;;;;5065954;28;20193;-58
2021/05/21 11:36:16;;;;;;;1.47;1.00;;;;;;;;;;5058417;28;20660;-59
2021/05/21 11:38:44;;;;;;;1.15;0.95;;;;;;;;;;5058988;28;20268;-57
2021/05/21 11:41:14;;;;;;;3.53;1.10;;;;;;;;;;5045975;28;20711;-56
2021/05/21 11:43:49;;;;;;;3.83;0.98;;;;;;;;;;5067422;28;20185;-60
2021/05/21 11:46:21;;;;;;;2.15;1.10;;;;;;;;;;5065313;28;20179;-58
2021/05/21 11:48:51;;;;;;;1.63;1.08;;;;;;;;;;5061857;28;20742;-56
2021/05/21 11:51:25;;;;;;;3.45;1.33;;;;;;;;;;5061108;28;20216;-59
2021/05/21 11:53:54;;;;;;;3.38;0.90;;;;;;;;;;5049374;28;20731;-58
2021/05/21 11:56:36;;;;;;;9.23;1.40;;;;;;;;;;5067428;28;20196;-60
2021/05/21 11:59:10;;;;;;;1.00;0.80;;;;;;;;;;5064453;28;20215;-58
2021/05/21 12:01:39;;;;;;;1.20;0.70;;;;;;;;;;5060524;28;20210;-59
2021/05/21 12:04:08;;;;;;;2.85;1.20;;;;;;;;;;5076371;28;20274;-58
2021/05/21 12:06:34;;;;;;;5.35;0.80;;;;;;;;;;5066666;28;20209;-58
2021/05/21 12:09:06;;;;;;;3.72;0.93;;;;;;;;;;5063318;28;20681;-58
2021/05/21 12:11:33;;;;;;;1.75;0.93;;;;;;;;;;5065695;28;20205;-59
2021/05/21 12:14:05;;;;;;;2.63;0.90;;;;;;;;;;5066581;28;20196;-59
2021/05/21 12:16:34;;;;;;;2.30;0.95;;;;;;;;;;5042502;28;20245;-60
2021/05/21 12:19:06;;;;;;;3.50;1.10;;;;;;;;;;5066679;28;20183;-59
2021/05/21 12:21:36;;;;;;;2.90;1.02;;;;;;;;;;5045484;28;20288;-59
2021/05/21 12:24:05;;;;;;;2.58;1.00;;;;;;;;;;5058124;28;20712;-57
2021/05/21 12:26:34;;;;;;;1.67;0.90;;;;;;;;;;5059091;28;20189;-60
2021/05/21 12:29:06;;;;;;;6.93;1.02;;;;;;;;;;5060152;28;20255;-58
2021/05/21 12:31:36;;;;;;;4.90;0.95;;;;;;;;;;5061421;28;20216;-56
2021/05/21 12:34:02;;;;;;;5.15;1.20;;;;;;;;;;5057129;28;20181;-57
2021/05/21 12:36:29;;;;;;;5.45;1.33;;;;;;;;;;5061935;28;20193;-58
2021/05/21 12:38:58;;;;;;;8.20;1.20;;;;;;;;;;5058388;28;20256;-59
2021/05/21 12:41:35;;;;;;;1.43;0.80;;;;;;;;;;5048461;28;20188;-58
2021/05/21 12:44:15;;;;;;;3.07;1.00;;;;;;;;;;5049294;28;20188;-57
2021/05/21 12:46:57;;;;;;;7.40;1.43;;;;;;;;;;5064778;28;20181;-57
2021/05/21 12:49:27;;;;;;;3.50;1.27;;;;;;;;;;5053827;28;20689;-58
2021/05/21 12:51:58;;;;;;;2.90;0.90;;;;;;;;;;5051842;28;20206;-58
2021/05/21 12:54:33;;;;;;;3.07;0.97;;;;;;;;;;5062551;28;20680;-58
2021/05/21 12:57:11;;;;;;;2.00;0.93;;;;;;;;;;5041083;28;20196;-57
2021/05/21 12:59:41;;;;;;;3.70;1.57;;;;;;;;;;5062245;28;20207;-57
2021/05/21 13:02:11;;;;;;;1.03;0.90;;;;;;;;;;5054898;28;20231;-59
2021/05/21 13:04:37;;;;;;;2.73;0.93;;;;;;;;;;5041117;28;20185;-59
2021/05/21 13:07:05;;;;;;;1.87;1.00;;;;;;;;;;5049598;28;20665;-58
2021/05/21 13:09:34;;;;;;;4.40;1.20;;;;;;;;;;5051962;28;20259;-59
2021/05/21 13:12:04;;;;;;;4.23;1.20;;;;;;;;;;5055399;28;20251;-58
2021/05/21 13:14:33;;;;;;;3.67;0.98;;;;;;;;;;5028686;28;20213;-56
2021/05/21 13:17:08;;;;;;;4.00;1.03;;;;;;;;;;5062065;28;20234;-58
2021/05/21 13:19:43;;;;;;;3.72;1.13;;;;;;;;;;5059072;28;20180;-55
2021/05/21 13:22:19;;;;;;;2.50;1.20;;;;;;;;;;5058826;28;20204;-55
2021/05/21 13:24:49;;;;;;;3.20;0.90;;;;;;;;;;5063844;28;20189;-54
2021/05/21 13:27:19;;;;;;;3.60;1.33;;;;;;;;;;5067611;28;20601;-54
2021/05/21 13:29:47;;;;;;;2.55;1.02;;;;;;;;;;5042735;28;20627;-54
2021/05/21 13:32:13;;;;;;;2.43;1.20;;;;;;;;;;5064706;28;20639;-54
2021/05/21 13:34:38;;;;;;;1.67;1.10;;;;;;;;;;5063131;28;20184;-54
2021/05/21 13:37:03;;;;;;;4.82;1.38;;;;;;;;;;5063600;28;20193;-54
2021/05/21 13:39:28;;;;;;;2.67;1.10;;;;;;;;;;5065542;28;20455;-55
2021/05/21 13:41:54;;;;;;;4.30;1.00;;;;;;;;;;5067619;28;20606;-54
2021/05/21 13:44:19;;;;;;;3.13;1.13;;;;;;;;;;5044962;28;20569;-54
2021/05/21 13:46:45;;;;;;;10.57;1.13;;;;;;;;;;5066103;28;20218;-55
2021/05/21 13:49:12;;;;;;;3.17;1.00;;;;;;;;;;5064505;28;20292;-54
2021/05/21 13:51:44;;;;;;;2.73;0.90;;;;;;;;;;5067322;28;20252;-54
2021/05/21 13:54:11;;;;;;;2.87;1.00;;;;;;;;;;5055617;28;20174;-54
2021/05/21 13:56:39;;;;;;;2.57;0.90;;;;;;;;;;5046869;28;20803;-54
2021/05/21 13:59:06;;;;;;;0.70;0.70;;;;;;;;;;5063664;28;20190;-54
2021/05/21 14:01:33;;;;;;;3.07;1.00;;;;;;;;;;5062216;28;20309;-57
2021/05/21 14:04:00;;;;;;;2.33;1.03;;;;;;;;;;5060339;28;20220;-54
2021/05/21 14:06:28;;;;;;;2.37;1.27;;;;;;;;;;5045695;28;20192;-54
2021/05/21 14:08:58;;;;;;;2.33;1.20;;;;;;;;;;5045221;28;20204;-54
2021/05/21 14:11:24;;;;;;;2.63;1.00;;;;;;;;;;5037482;28;20193;-55
2021/05/21 14:13:49;;;;;;;4.30;1.10;;;;;;;;;;5062926;28;20536;-55
2021/05/21 14:16:14;;;;;;;4.37;1.20;;;;;;;;;;5058879;28;20225;-55
2021/05/21 14:18:42;;;;;;;4.50;1.17;;;;;;;;;;5062174;28;20213;-54
2021/05/21 14:21:07;;;;;;;2.73;1.20;;;;;;;;;;5067318;28;20193;-54
2021/05/21 14:23:33;;;;;;;4.90;1.30;;;;;;;;;;5059376;28;20205;-55
2021/05/21 14:25:58;;;;;;;3.10;1.50;;;;;;;;;;5063494;28;20216;-55
2021/05/21 14:28:26;;;;;;;4.60;1.30;;;;;;;;;;5062373;28;20204;-54
2021/05/21 14:30:52;;;;;;;5.00;1.10;;;;;;;;;;5060576;28;20228;-54
2021/05/21 14:33:21;;;;;;;3.67;1.30;;;;;;;;;;5064093;28;20684;-55
2021/05/21 14:35:46;;;;;;;3.25;1.30;;;;;;;;;;5056612;28;20186;-55
2021/05/21 14:38:12;;;;;;;3.90;1.25;;;;;;;;;;5061248;28;20193;-56
2021/05/21 14:40:42;;;;;;;3.13;1.10;;;;;;;;;;5066098;28;20211;-55
2021/05/21 14:43:07;;;;;;;3.43;1.30;;;;;;;;;;5055490;28;20802;-55
2021/05/21 14:45:34;;;;;;;3.55;1.30;;;;;;;;;;5059579;28;20197;-56
2021/05/21 14:48:00;;;;;;;8.05;1.38;;;;;;;;;;5057500;28;20190;-56
2021/05/21 14:50:25;;;;;;;3.47;1.25;;;;;;;;;;5055201;28;20212;-56
2021/05/21 14:52:52;;;;;;;2.63;1.20;;;;;;;;;;5054121;28;20697;-55
2021/05/21 14:55:20;;;;;;;4.03;1.30;;;;;;;;;;5054290;28;20208;-57